sensor_id;sensor_type;location;lat;lon;timestamp;pressure;altitude;pressure_sealevel;temperature;humidity
14757;BME280;62446;53.214;10.398;2022-11-15T16:01:09;100499.91;;;8.61;82.98
14757;BME280;62446;53.214;10.398;2022-11-15T16:04:13;100499.16;;;8.73;79.58
14757;BME280;62446;53.214;10.398;2022-11-15T16:07:20;100501.06;;;8.72;78.62
14757;BME280;62446;53.214;10.398;2022-11-15T16:10:27;100496.25;;;8.42;78.87
14757;BME280;62446;53.214;10.398;2022-11-15T16:13:31;100496.66;;;8.46;79.17
14757;BME280;62446;53.214;10.398;2022-11-15T16:16:37;100502.19;;;8.39;79.18
14757;BME280;62446;53.214;10.398;2022-11-15T16:19:41;100504.84;;;8.27;78.76
14757;BME280;62446;53.214;10.398;2022-11-15T16:22:44;100501.56;;;8.12;79.92
14757;BME280;62446;53.214;10.398;2022-11-15T16:25:50;100493.97;;;8.14;81.07
14757;BME280;62446;53.214;10.398;2022-11-15T16:28:54;100483.56;;;8.16;82.25
14757;BME280;62446;53.214;10.398;2022-11-15T16:31:59;100488.41;;;8.21;82.58
14757;BME280;62446;53.214;10.398;2022-11-15T16:35:03;100484.97;;;8.25;84.14
14757;BME280;62446;53.214;10.398;2022-11-15T16:38:13;100490.47;;;8.25;84.80
14757;BME280;62446;53.214;10.398;2022-11-15T16:41:18;100479.81;;;8.36;84.80
14757;BME280;62446;53.214;10.398;2022-11-15T16:44:22;100465.69;;;8.32;84.91
14757;BME280;62446;53.214;10.398;2022-11-15T16:47:27;100465.94;;;8.30;85.12
14757;BME280;62446;53.214;10.398;2022-11-15T16:50:32;100469.28;;;8.32;85.21
14757;BME280;62446;53.214;10.398;2022-11-15T16:53:42;100463.41;;;8.54;84.28
14757;BME280;62446;53.214;10.398;2022-11-15T16:56:46;100460.19;;;8.57;83.84
14757;BME280;62446;53.214;10.398;2022-11-15T16:59:49;100454.50;;;8.77;83.16
14757;BME280;62446;53.214;10.398;2022-11-15T17:02:54;100455.16;;;8.91;82.15
14757;BME280;62446;53.214;10.398;2022-11-15T17:05:58;100452.53;;;9.03;81.25
14757;BME280;62446;53.214;10.398;2022-11-15T17:09:02;100453.78;;;9.19;80.37
14757;BME280;62446;53.214;10.398;2022-11-15T17:12:06;100442.06;;;8.93;79.81
14757;BME280;62446;53.214;10.398;2022-11-15T17:15:11;100444.03;;;8.67;82.72
14757;BME280;62446;53.214;10.398;2022-11-15T17:18:16;100434.19;;;8.35;80.94
14757;BME280;62446;53.214;10.398;2022-11-15T17:21:21;100439.31;;;8.56;82.91
14757;BME280;62446;53.214;10.398;2022-11-15T17:24:25;100434.72;;;8.69;83.08
14757;BME280;62446;53.214;10.398;2022-11-15T17:27:29;100433.72;;;8.81;81.97
14757;BME280;62446;53.214;10.398;2022-11-15T17:30:33;100430.06;;;9.06;81.33
14757;BME280;62446;53.214;10.398;2022-11-15T17:33:38;100431.81;;;9.00;81.54
14757;BME280;62446;53.214;10.398;2022-11-15T17:36:42;100429.28;;;8.99;81.19
14757;BME280;62446;53.214;10.398;2022-11-15T17:39:46;100434.63;;;9.12;80.81
14757;BME280;62446;53.214;10.398;2022-11-15T17:42:50;100430.41;;;9.10;80.49
14757;BME280;62446;53.214;10.398;2022-11-15T17:45:54;100429.28;;;8.99;81.13
14757;BME280;62446;53.214;10.398;2022-11-15T17:48:59;100436.97;;;9.09;80.52
14757;BME280;62446;53.214;10.398;2022-11-15T17:52:03;100443.09;;;9.11;80.20
14757;BME280;62446;53.214;10.398;2022-11-15T17:55:07;100446.44;;;9.13;80.15
14757;BME280;62446;53.214;10.398;2022-11-15T17:58:11;100434.22;;;9.09;79.86
14757;BME280;62446;53.214;10.398;2022-11-15T18:01:17;100436.16;;;9.08;79.91
14757;BME280;62446;53.214;10.398;2022-11-15T18:04:23;100431.63;;;9.32;78.71
14757;BME280;62446;53.214;10.398;2022-11-15T18:07:29;100428.00;;;9.32;78.67
14757;BME280;62446;53.214;10.398;2022-11-15T18:10:33;100424.31;;;9.08;78.50
14757;BME280;62446;53.214;10.398;2022-11-15T18:13:37;100421.28;;;8.97;79.52
14757;BME280;62446;53.214;10.398;2022-11-15T18:16:41;100417.53;;;8.92;79.83
14757;BME280;62446;53.214;10.398;2022-11-15T18:19:46;100416.53;;;8.86;79.71
14757;BME280;62446;53.214;10.398;2022-11-15T18:22:51;100415.84;;;8.72;80.71
14757;BME280;62446;53.214;10.398;2022-11-15T18:25:55;100407.47;;;8.86;79.68
14757;BME280;62446;53.214;10.398;2022-11-15T18:29:02;100405.84;;;8.78;80.18
14757;BME280;62446;53.214;10.398;2022-11-15T18:32:06;100397.72;;;9.01;79.26
14757;BME280;62446;53.214;10.398;2022-11-15T18:35:15;100402.50;;;8.94;79.72
14757;BME280;62446;53.214;10.398;2022-11-15T18:38:19;100395.59;;;9.04;79.39
14757;BME280;62446;53.214;10.398;2022-11-15T18:41:23;100399.16;;;9.04;79.64
14757;BME280;62446;53.214;10.398;2022-11-15T18:44:29;100404.78;;;8.97;79.88
14757;BME280;62446;53.214;10.398;2022-11-15T18:47:33;100404.47;;;8.87;80.27
14757;BME280;62446;53.214;10.398;2022-11-15T18:50:38;100391.53;;;9.06;79.77
14757;BME280;62446;53.214;10.398;2022-11-15T18:53:42;100395.72;;;9.09;79.81
14757;BME280;62446;53.214;10.398;2022-11-15T18:56:46;100395.28;;;9.12;79.46
14757;BME280;62446;53.214;10.398;2022-11-15T18:59:50;100380.31;;;9.08;79.67
14757;BME280;62446;53.214;10.398;2022-11-15T19:02:53;100380.66;;;9.42;78.06
14757;BME280;62446;53.214;10.398;2022-11-15T19:06:02;100370.13;;;9.39;77.97
14757;BME280;62446;53.214;10.398;2022-11-15T19:09:06;100360.59;;;9.11;79.09
14757;BME280;62446;53.214;10.398;2022-11-15T19:12:10;100363.00;;;9.19;78.70
14757;BME280;62446;53.214;10.398;2022-11-15T19:15:14;100357.72;;;9.17;78.43
14757;BME280;62446;53.214;10.398;2022-11-15T19:18:18;100362.56;;;9.22;78.23
14757;BME280;62446;53.214;10.398;2022-11-15T19:21:23;100372.53;;;9.05;78.48
14757;BME280;62446;53.214;10.398;2022-11-15T19:24:27;100370.66;;;9.17;77.98
14757;BME280;62446;53.214;10.398;2022-11-15T19:27:31;100362.81;;;9.32;77.59
14757;BME280;62446;53.214;10.398;2022-11-15T19:30:39;100369.38;;;9.01;78.16
14757;BME280;62446;53.214;10.398;2022-11-15T19:33:44;100364.94;;;9.30;76.94
14757;BME280;62446;53.214;10.398;2022-11-15T19:36:49;100365.91;;;9.24;76.88
14757;BME280;62446;53.214;10.398;2022-11-15T19:39:52;100372.19;;;9.13;77.38
14757;BME280;62446;53.214;10.398;2022-11-15T19:42:56;100373.56;;;9.22;77.19
14757;BME280;62446;53.214;10.398;2022-11-15T19:46:01;100381.56;;;9.24;76.76
14757;BME280;62446;53.214;10.398;2022-11-15T19:49:05;100374.94;;;9.13;76.85
14757;BME280;62446;53.214;10.398;2022-11-15T19:52:14;100369.91;;;9.10;76.60
14757;BME280;62446;53.214;10.398;2022-11-15T19:55:17;100373.84;;;9.32;75.88
14757;BME280;62446;53.214;10.398;2022-11-15T19:58:21;100366.63;;;9.01;76.88
14757;BME280;62446;53.214;10.398;2022-11-15T20:01:27;100358.44;;;9.13;76.25
14757;BME280;62446;53.214;10.398;2022-11-15T20:04:31;100362.56;;;9.22;75.98
14757;BME280;62446;53.214;10.398;2022-11-15T20:07:36;100363.06;;;9.00;76.64
14757;BME280;62446;53.214;10.398;2022-11-15T20:10:42;100368.56;;;9.00;76.53
14757;BME280;62446;53.214;10.398;2022-11-15T20:13:47;100367.03;;;9.05;76.35
14757;BME280;62446;53.214;10.398;2022-11-15T20:16:50;100363.38;;;8.92;76.54
14757;BME280;62446;53.214;10.398;2022-11-15T20:19:55;100361.75;;;9.03;76.29
14757;BME280;62446;53.214;10.398;2022-11-15T20:23:01;100364.75;;;8.83;76.70
14757;BME280;62446;53.214;10.398;2022-11-15T20:26:05;100361.53;;;8.86;76.75
14757;BME280;62446;53.214;10.398;2022-11-15T20:29:09;100361.53;;;9.05;76.21
14757;BME280;62446;53.214;10.398;2022-11-15T20:32:12;100357.56;;;8.82;77.17
14757;BME280;62446;53.214;10.398;2022-11-15T20:35:16;100350.69;;;8.91;76.97
14757;BME280;62446;53.214;10.398;2022-11-15T20:38:22;100356.47;;;9.01;76.35
14757;BME280;62446;53.214;10.398;2022-11-15T20:41:26;100347.63;;;8.99;76.37
14757;BME280;62446;53.214;10.398;2022-11-15T20:44:29;100344.13;;;8.92;76.75
14757;BME280;62446;53.214;10.398;2022-11-15T20:47:33;100338.78;;;8.79;77.12
14757;BME280;62446;53.214;10.398;2022-11-15T20:50:36;100345.06;;;8.67;77.73
14757;BME280;62446;53.214;10.398;2022-11-15T20:53:46;100342.31;;;8.86;76.85
14757;BME280;62446;53.214;10.398;2022-11-15T20:56:51;100344.88;;;8.81;76.98
14757;BME280;62446;53.214;10.398;2022-11-15T20:59:54;100341.53;;;8.79;76.58
14757;BME280;62446;53.214;10.398;2022-11-15T21:03:03;100350.66;;;8.61;76.86
14757;BME280;62446;53.214;10.398;2022-11-15T21:06:08;100344.31;;;8.60;77.19
14757;BME280;62446;53.214;10.398;2022-11-15T21:09:13;100347.59;;;8.51;77.50
14757;BME280;62446;53.214;10.398;2022-11-15T21:12:34;100348.81;;;8.55;77.69
14757;BME280;62446;53.214;10.398;2022-11-15T21:15:38;100346.47;;;8.58;77.27
14757;BME280;62446;53.214;10.398;2022-11-15T21:18:42;100340.72;;;8.60;76.69
14757;BME280;62446;53.214;10.398;2022-11-15T21:21:45;100343.13;;;8.56;76.97
14757;BME280;62446;53.214;10.398;2022-11-15T21:24:50;100334.31;;;8.47;77.34
14757;BME280;62446;53.214;10.398;2022-11-15T21:27:54;100334.31;;;8.47;76.89
14757;BME280;62446;53.214;10.398;2022-11-15T21:30:58;100329.50;;;8.61;76.31
14757;BME280;62446;53.214;10.398;2022-11-15T21:34:03;100325.22;;;8.65;75.79
14757;BME280;62446;53.214;10.398;2022-11-15T21:37:08;100317.88;;;8.41;76.87
14757;BME280;62446;53.214;10.398;2022-11-15T21:40:14;100321.22;;;8.43;76.75
14757;BME280;62446;53.214;10.398;2022-11-15T21:43:18;100316.72;;;8.48;76.54
14757;BME280;62446;53.214;10.398;2022-11-15T21:46:22;100310.25;;;8.61;75.71
14757;BME280;62446;53.214;10.398;2022-11-15T21:49:25;100319.72;;;8.65;75.36
14757;BME280;62446;53.214;10.398;2022-11-15T21:52:29;100313.94;;;8.55;75.53
14757;BME280;62446;53.214;10.398;2022-11-15T21:55:37;100309.41;;;8.42;75.98
14757;BME280;62446;53.214;10.398;2022-11-15T21:58:41;100304.06;;;8.66;75.06
14757;BME280;62446;53.214;10.398;2022-11-15T22:01:45;100307.06;;;8.27;76.47
14757;BME280;62446;53.214;10.398;2022-11-15T22:05:06;100305.50;;;8.50;75.32
